FranceFixed distance
Luchon Aneto Trail - L'Ultra Lat
6–7 Jul2024
Distance
85km
Finishers
273238 men35 women
Winning time
6:48:30h
Median pace
7.83km/h
Pace distribution
273 finishers · 5.96–12.48 km/h · mean 8.01
Every finisher ran the same 85 km course, so these paces are directly comparable.
Histogram of finisher pace. 273 finishers ranged from 5.96 to 12.48 kilometres per hour, with a mean of 8.01 and a median of 7.83. The busiest band is 7.5 to 8.0 kilometres per hour, with 49 finishers.
Results
Ranks 251–273 of 273
| Rank | Runner | Time | Pace | Cat. | Placing |
|---|---|---|---|---|---|
| 251 | *Ondes | 12:53:32h | 6.59 | M40 | 218th M · 56th M40 |
| 252 | Aventures Running Sego... | 12:55:36h | 6.58 | M50 | 219th M · 22nd M50 |
| 253 | 12:59:29h | 6.54 | M60 | 220th M · 2nd M60 | |
| 254 | 12:59:42h | 6.54 | M35 | 221st M · 44th M35 | |
| 255 | 12:59:43h | 6.54 | W35 | 34th F · 7th W35 | |
| 256 | Esprit Sports | 13:03:28h | 6.51 | M50 | 222nd M · 23rd M50 |
| 257 | les Mille Pattes de Méze | 13:07:37h | 6.47 | M55 | 223rd M · 8th M55 |
| 258 | 13:08:08h | 6.47 | M40 | 224th M · 57th M40 | |
| 259 | Jarnac Athlétisme | 13:08:09h | 6.47 | M23 | 225th M · 43rd M23 |
| 260 | *Pibrac | 13:14:14h | 6.42 | M45 | 226th M · 44th M45 |
| 261 | 13:16:18h | 6.41 | M60 | 227th M · 3rd M60 | |
| 262 | *Auzielle | 13:21:59h | 6.36 | M65 | 228th M · 3rd M65 |
| 263 | *Cheffois | 13:28:02h | 6.31 | M50 | 229th M · 24th M50 |
| 264 | 13:28:03h | 6.31 | M35 | 230th M · 45th M35 | |
| 265 | 13:29:21h | 6.30 | M23 | 231st M · 44th M23 | |
| 265 | *Fargues-Saint-Hilaire | 13:29:21h | 6.30 | M23 | 231st M · 44th M23 |
| 267 | Canejan Athletisme | 13:35:17h | 6.25 | M50 | 233rd M · 25th M50 |
| 268 | *Toulouse | 13:35:20h | 6.25 | M35 | 234th M · 46th M35 |
| 269 | 13:35:29h | 6.25 | M35 | 235th M · 47th M35 | |
| 270 | Patatrail | 13:39:31h | 6.22 | W35 | 35th F · 8th W35 |
| 271 | Patatrail | 13:39:32h | 6.22 | M35 | 236th M · 48th M35 |
| 272 | CAP Endurance | 13:57:08h | 6.09 | M40 | 237th M · 58th M40 |
| 273 | Tarbes Triathlon | 14:15:59h | 5.96 | M60 | 238th M · 4th M60 |
- 251*Ondes218th M · 56th M40Time12:53:32hPace6.59Cat.M40
- 252Aventures Running Sego...219th M · 22nd M50Time12:55:36hPace6.58Cat.M50
- 253220th M · 2nd M60Time12:59:29hPace6.54Cat.M60
- 254221st M · 44th M35Time12:59:42hPace6.54Cat.M35
- 25534th F · 7th W35Time12:59:43hPace6.54Cat.W35
- 256Esprit Sports222nd M · 23rd M50Time13:03:28hPace6.51Cat.M50
- 257les Mille Pattes de Méze223rd M · 8th M55Time13:07:37hPace6.47Cat.M55
- 258224th M · 57th M40Time13:08:08hPace6.47Cat.M40
- 259Jarnac Athlétisme225th M · 43rd M23Time13:08:09hPace6.47Cat.M23
- 260*Pibrac226th M · 44th M45Time13:14:14hPace6.42Cat.M45
- 261227th M · 3rd M60Time13:16:18hPace6.41Cat.M60
- 262*Auzielle228th M · 3rd M65Time13:21:59hPace6.36Cat.M65
- 263*Cheffois229th M · 24th M50Time13:28:02hPace6.31Cat.M50
- 264230th M · 45th M35Time13:28:03hPace6.31Cat.M35
- 265231st M · 44th M23Time13:29:21hPace6.30Cat.M23
- 265*Fargues-Saint-Hilaire231st M · 44th M23Time13:29:21hPace6.30Cat.M23
- 267Canejan Athletisme233rd M · 25th M50Time13:35:17hPace6.25Cat.M50
- 268*Toulouse234th M · 46th M35Time13:35:20hPace6.25Cat.M35
- 269235th M · 47th M35Time13:35:29hPace6.25Cat.M35
- 270Patatrail35th F · 8th W35Time13:39:31hPace6.22Cat.W35
- 271Patatrail236th M · 48th M35Time13:39:32hPace6.22Cat.M35
- 272CAP Endurance237th M · 58th M40Time13:57:08hPace6.09Cat.M40
- 273Tarbes Triathlon238th M · 4th M60Time14:15:59hPace5.96Cat.M60
Showing ranks 251–273 of 273